sensor_id;sensor_type;location;lat;lon;timestamp;P1;durP1;ratioP1;P2;durP2;ratioP2
70981;SDS011;58640;51.320;9.456;2023-03-01T00:01:09;15.33;;;7.20;;
70981;SDS011;58640;51.320;9.456;2023-03-01T00:03:37;11.43;;;7.43;;
70981;SDS011;58640;51.320;9.456;2023-03-01T00:06:03;8.97;;;6.63;;
70981;SDS011;58640;51.320;9.456;2023-03-01T00:08:29;14.13;;;7.70;;
70981;SDS011;58640;51.320;9.456;2023-03-01T00:11:02;14.40;;;8.33;;
70981;SDS011;58640;51.320;9.456;2023-03-01T00:13:42;12.73;;;7.07;;
70981;SDS011;58640;51.320;9.456;2023-03-01T00:16:30;12.83;;;7.57;;
70981;SDS011;58640;51.320;9.456;2023-03-01T00:18:56;14.40;;;7.73;;
70981;SDS011;58640;51.320;9.456;2023-03-01T00:21:22;11.40;;;7.23;;
70981;SDS011;58640;51.320;9.456;2023-03-01T00:23:48;14.43;;;7.57;;
70981;SDS011;58640;51.320;9.456;2023-03-01T00:26:14;11.70;;;7.67;;
70981;SDS011;58640;51.320;9.456;2023-03-01T00:28:41;10.30;;;6.83;;
70981;SDS011;58640;51.320;9.456;2023-03-01T00:31:11;12.27;;;7.97;;
70981;SDS011;58640;51.320;9.456;2023-03-01T00:33:41;15.30;;;7.87;;
70981;SDS011;58640;51.320;9.456;2023-03-01T00:36:07;11.40;;;7.40;;
70981;SDS011;58640;51.320;9.456;2023-03-01T00:38:36;13.10;;;7.50;;
70981;SDS011;58640;51.320;9.456;2023-03-01T00:41:03;12.40;;;7.00;;
70981;SDS011;58640;51.320;9.456;2023-03-01T00:43:39;8.67;;;6.80;;
70981;SDS011;58640;51.320;9.456;2023-03-01T00:46:06;15.23;;;7.37;;
70981;SDS011;58640;51.320;9.456;2023-03-01T00:48:33;12.17;;;7.97;;
70981;SDS011;58640;51.320;9.456;2023-03-01T00:51:10;11.73;;;7.40;;
70981;SDS011;58640;51.320;9.456;2023-03-01T00:53:37;13.77;;;8.23;;
70981;SDS011;58640;51.320;9.456;2023-03-01T00:56:03;13.90;;;7.00;;
70981;SDS011;58640;51.320;9.456;2023-03-01T00:58:29;15.20;;;7.53;;
70981;SDS011;58640;51.320;9.456;2023-03-01T01:00:55;13.13;;;7.40;;
70981;SDS011;58640;51.320;9.456;2023-03-01T01:03:20;10.40;;;7.03;;
70981;SDS011;58640;51.320;9.456;2023-03-01T01:05:46;10.63;;;6.23;;
70981;SDS011;58640;51.320;9.456;2023-03-01T01:08:11;11.20;;;7.00;;
70981;SDS011;58640;51.320;9.456;2023-03-01T01:10:36;10.47;;;6.60;;
70981;SDS011;58640;51.320;9.456;2023-03-01T01:13:02;12.27;;;7.00;;
70981;SDS011;58640;51.320;9.456;2023-03-01T01:15:28;11.43;;;7.27;;
70981;SDS011;58640;51.320;9.456;2023-03-01T01:17:53;10.13;;;6.17;;
70981;SDS011;58640;51.320;9.456;2023-03-01T01:20:19;10.50;;;6.67;;
70981;SDS011;58640;51.320;9.456;2023-03-01T01:22:45;12.17;;;6.50;;
70981;SDS011;58640;51.320;9.456;2023-03-01T01:25:10;12.17;;;7.47;;
70981;SDS011;58640;51.320;9.456;2023-03-01T01:27:36;12.80;;;7.60;;
70981;SDS011;58640;51.320;9.456;2023-03-01T01:30:02;12.43;;;7.40;;
70981;SDS011;58640;51.320;9.456;2023-03-01T01:32:28;11.33;;;7.40;;
70981;SDS011;58640;51.320;9.456;2023-03-01T01:34:54;10.37;;;6.87;;
70981;SDS011;58640;51.320;9.456;2023-03-01T01:37:20;12.57;;;7.07;;
70981;SDS011;58640;51.320;9.456;2023-03-01T01:39:45;9.90;;;7.50;;
70981;SDS011;58640;51.320;9.456;2023-03-01T01:42:17;9.83;;;6.43;;
70981;SDS011;58640;51.320;9.456;2023-03-01T01:44:46;12.20;;;7.00;;
70981;SDS011;58640;51.320;9.456;2023-03-01T01:49:49;11.23;;;6.93;;
70981;SDS011;58640;51.320;9.456;2023-03-01T01:52:18;11.50;;;6.80;;
70981;SDS011;58640;51.320;9.456;2023-03-01T01:54:49;13.55;;;7.70;;
70981;SDS011;58640;51.320;9.456;2023-03-01T01:57:23;11.20;;;7.23;;
70981;SDS011;58640;51.320;9.456;2023-03-01T01:59:53;12.20;;;6.60;;
70981;SDS011;58640;51.320;9.456;2023-03-01T02:02:23;11.70;;;7.37;;
70981;SDS011;58640;51.320;9.456;2023-03-01T02:04:49;16.87;;;7.17;;
70981;SDS011;58640;51.320;9.456;2023-03-01T02:07:23;11.13;;;7.03;;
70981;SDS011;58640;51.320;9.456;2023-03-01T02:09:50;9.40;;;6.23;;
70981;SDS011;58640;51.320;9.456;2023-03-01T02:12:18;9.50;;;6.53;;
70981;SDS011;58640;51.320;9.456;2023-03-01T02:14:46;12.47;;;7.57;;
70981;SDS011;58640;51.320;9.456;2023-03-01T02:17:12;9.70;;;6.40;;
70981;SDS011;58640;51.320;9.456;2023-03-01T02:30:40;10.93;;;6.50;;
70981;SDS011;58640;51.320;9.456;2023-03-01T02:33:29;9.27;;;5.93;;
70981;SDS011;58640;51.320;9.456;2023-03-01T02:36:01;9.95;;;6.88;;
70981;SDS011;58640;51.320;9.456;2023-03-01T02:38:29;11.13;;;6.40;;
70981;SDS011;58640;51.320;9.456;2023-03-01T02:40:55;9.97;;;5.90;;
70981;SDS011;58640;51.320;9.456;2023-03-01T02:43:22;11.20;;;6.40;;
70981;SDS011;58640;51.320;9.456;2023-03-01T02:45:51;10.80;;;7.10;;
70981;SDS011;58640;51.320;9.456;2023-03-01T02:48:18;10.00;;;6.43;;
70981;SDS011;58640;51.320;9.456;2023-03-01T02:53:35;11.43;;;6.80;;
70981;SDS011;58640;51.320;9.456;2023-03-01T02:56:32;8.87;;;6.07;;
70981;SDS011;58640;51.320;9.456;2023-03-01T02:58:57;15.80;;;6.33;;
70981;SDS011;58640;51.320;9.456;2023-03-01T03:01:25;10.03;;;6.63;;
70981;SDS011;58640;51.320;9.456;2023-03-01T03:04:09;11.57;;;6.60;;
70981;SDS011;58640;51.320;9.456;2023-03-01T03:06:36;11.53;;;6.60;;
70981;SDS011;58640;51.320;9.456;2023-03-01T03:09:02;11.40;;;6.07;;
70981;SDS011;58640;51.320;9.456;2023-03-01T03:11:28;15.07;;;6.93;;
70981;SDS011;58640;51.320;9.456;2023-03-01T03:13:54;13.70;;;7.00;;
70981;SDS011;58640;51.320;9.456;2023-03-01T03:16:20;9.70;;;6.57;;
70981;SDS011;58640;51.320;9.456;2023-03-01T03:18:46;17.47;;;8.00;;
70981;SDS011;58640;51.320;9.456;2023-03-01T03:21:12;11.60;;;7.03;;
70981;SDS011;58640;51.320;9.456;2023-03-01T03:23:38;12.83;;;7.27;;
70981;SDS011;58640;51.320;9.456;2023-03-01T03:26:04;13.43;;;6.70;;
70981;SDS011;58640;51.320;9.456;2023-03-01T03:28:31;11.87;;;7.30;;
70981;SDS011;58640;51.320;9.456;2023-03-01T03:30:57;10.63;;;6.60;;
70981;SDS011;58640;51.320;9.456;2023-03-01T03:33:23;9.80;;;7.00;;
70981;SDS011;58640;51.320;9.456;2023-03-01T03:35:49;12.70;;;7.43;;
70981;SDS011;58640;51.320;9.456;2023-03-01T03:38:15;13.73;;;7.07;;
70981;SDS011;58640;51.320;9.456;2023-03-01T03:40:48;10.60;;;6.57;;
70981;SDS011;58640;51.320;9.456;2023-03-01T03:43:16;9.80;;;6.50;;
70981;SDS011;58640;51.320;9.456;2023-03-01T03:45:46;10.00;;;6.50;;
70981;SDS011;58640;51.320;9.456;2023-03-01T03:48:13;10.10;;;6.53;;
70981;SDS011;58640;51.320;9.456;2023-03-01T03:50:39;13.53;;;7.43;;
70981;SDS011;58640;51.320;9.456;2023-03-01T03:53:06;12.37;;;7.23;;
70981;SDS011;58640;51.320;9.456;2023-03-01T03:55:34;12.10;;;7.30;;
70981;SDS011;58640;51.320;9.456;2023-03-01T03:58:01;10.40;;;6.87;;
70981;SDS011;58640;51.320;9.456;2023-03-01T04:00:31;12.07;;;7.00;;
70981;SDS011;58640;51.320;9.456;2023-03-01T04:02:58;10.87;;;6.47;;
70981;SDS011;58640;51.320;9.456;2023-03-01T04:05:24;12.27;;;6.93;;
70981;SDS011;58640;51.320;9.456;2023-03-01T04:07:49;8.67;;;6.20;;
70981;SDS011;58640;51.320;9.456;2023-03-01T04:10:25;10.87;;;6.87;;
70981;SDS011;58640;51.320;9.456;2023-03-01T04:12:51;12.67;;;6.40;;
70981;SDS011;58640;51.320;9.456;2023-03-01T04:15:17;13.47;;;7.23;;
70981;SDS011;58640;51.320;9.456;2023-03-01T04:17:44;12.10;;;7.03;;
70981;SDS011;58640;51.320;9.456;2023-03-01T04:20:11;10.10;;;6.47;;
70981;SDS011;58640;51.320;9.456;2023-03-01T04:22:39;10.17;;;6.30;;
70981;SDS011;58640;51.320;9.456;2023-03-01T04:25:05;16.87;;;7.10;;
70981;SDS011;58640;51.320;9.456;2023-03-01T04:27:34;12.40;;;7.10;;
70981;SDS011;58640;51.320;9.456;2023-03-01T04:30:00;15.10;;;7.53;;
70981;SDS011;58640;51.320;9.456;2023-03-01T04:32:25;12.93;;;7.60;;
70981;SDS011;58640;51.320;9.456;2023-03-01T04:34:51;11.70;;;7.13;;
70981;SDS011;58640;51.320;9.456;2023-03-01T04:37:16;11.07;;;6.87;;
70981;SDS011;58640;51.320;9.456;2023-03-01T04:39:41;9.43;;;6.17;;
70981;SDS011;58640;51.320;9.456;2023-03-01T04:42:11;15.87;;;6.53;;
70981;SDS011;58640;51.320;9.456;2023-03-01T04:44:37;11.30;;;7.00;;
70981;SDS011;58640;51.320;9.456;2023-03-01T04:47:02;10.80;;;6.63;;
70981;SDS011;58640;51.320;9.456;2023-03-01T04:49:27;12.20;;;6.43;;
70981;SDS011;58640;51.320;9.456;2023-03-01T04:51:53;10.80;;;6.90;;
70981;SDS011;58640;51.320;9.456;2023-03-01T04:54:18;9.80;;;6.73;;
70981;SDS011;58640;51.320;9.456;2023-03-01T04:56:43;10.30;;;6.43;;
70981;SDS011;58640;51.320;9.456;2023-03-01T04:59:09;14.07;;;6.50;;
70981;SDS011;58640;51.320;9.456;2023-03-01T05:01:35;11.10;;;5.80;;
70981;SDS011;58640;51.320;9.456;2023-03-01T05:04:00;11.80;;;6.30;;
70981;SDS011;58640;51.320;9.456;2023-03-01T05:06:28;10.03;;;6.50;;
70981;SDS011;58640;51.320;9.456;2023-03-01T05:08:53;12.40;;;6.90;;
70981;SDS011;58640;51.320;9.456;2023-03-01T05:11:18;11.53;;;6.27;;
70981;SDS011;58640;51.320;9.456;2023-03-01T05:13:44;12.03;;;6.57;;
70981;SDS011;58640;51.320;9.456;2023-03-01T05:16:09;13.27;;;7.13;;
70981;SDS011;58640;51.320;9.456;2023-03-01T05:18:36;10.97;;;5.87;;
70981;SDS011;58640;51.320;9.456;2023-03-01T05:21:03;11.67;;;6.73;;
70981;SDS011;58640;51.320;9.456;2023-03-01T05:23:33;10.20;;;6.13;;
70981;SDS011;58640;51.320;9.456;2023-03-01T05:25:59;11.73;;;6.23;;
70981;SDS011;58640;51.320;9.456;2023-03-01T05:28:29;8.40;;;5.67;;
70981;SDS011;58640;51.320;9.456;2023-03-01T05:30:55;11.30;;;7.23;;
70981;SDS011;58640;51.320;9.456;2023-03-01T05:33:21;50.67;;;18.13;;
70981;SDS011;58640;51.320;9.456;2023-03-01T05:35:47;40.33;;;16.00;;
70981;SDS011;58640;51.320;9.456;2023-03-01T05:38:14;15.80;;;8.00;;
70981;SDS011;58640;51.320;9.456;2023-03-01T05:40:44;12.60;;;7.70;;
70981;SDS011;58640;51.320;9.456;2023-03-01T05:43:11;12.00;;;6.97;;
70981;SDS011;58640;51.320;9.456;2023-03-01T05:45:38;15.50;;;7.50;;
70981;SDS011;58640;51.320;9.456;2023-03-01T05:48:04;13.97;;;7.37;;
70981;SDS011;58640;51.320;9.456;2023-03-01T05:50:32;10.90;;;6.60;;
70981;SDS011;58640;51.320;9.456;2023-03-01T05:53:06;11.00;;;6.90;;
70981;SDS011;58640;51.320;9.456;2023-03-01T05:55:35;13.93;;;6.97;;
70981;SDS011;58640;51.320;9.456;2023-03-01T05:58:02;11.30;;;6.03;;
70981;SDS011;58640;51.320;9.456;2023-03-01T06:00:32;11.47;;;7.13;;
70981;SDS011;58640;51.320;9.456;2023-03-01T06:02:59;12.23;;;7.23;;
70981;SDS011;58640;51.320;9.456;2023-03-01T06:05:25;10.80;;;7.60;;
70981;SDS011;58640;51.320;9.456;2023-03-01T06:07:51;12.47;;;7.43;;
70981;SDS011;58640;51.320;9.456;2023-03-01T06:10:18;10.23;;;6.23;;
70981;SDS011;58640;51.320;9.456;2023-03-01T06:12:45;9.53;;;6.90;;
70981;SDS011;58640;51.320;9.456;2023-03-01T06:15:11;11.70;;;7.50;;
70981;SDS011;58640;51.320;9.456;2023-03-01T06:17:38;11.17;;;6.77;;
70981;SDS011;58640;51.320;9.456;2023-03-01T06:20:06;13.27;;;6.80;;
70981;SDS011;58640;51.320;9.456;2023-03-01T06:22:43;14.17;;;8.07;;
70981;SDS011;58640;51.320;9.456;2023-03-01T06:25:09;11.67;;;6.80;;
70981;SDS011;58640;51.320;9.456;2023-03-01T06:27:37;12.43;;;6.80;;
70981;SDS011;58640;51.320;9.456;2023-03-01T06:30:02;11.27;;;7.10;;
70981;SDS011;58640;51.320;9.456;2023-03-01T06:32:28;9.40;;;6.73;;
70981;SDS011;58640;51.320;9.456;2023-03-01T06:34:55;12.83;;;7.43;;
70981;SDS011;58640;51.320;9.456;2023-03-01T06:37:20;14.63;;;8.17;;
70981;SDS011;58640;51.320;9.456;2023-03-01T06:39:45;15.07;;;7.43;;
70981;SDS011;58640;51.320;9.456;2023-03-01T06:42:11;12.40;;;7.13;;
70981;SDS011;58640;51.320;9.456;2023-03-01T06:44:36;11.27;;;7.37;;
70981;SDS011;58640;51.320;9.456;2023-03-01T06:47:02;13.33;;;7.23;;
70981;SDS011;58640;51.320;9.456;2023-03-01T06:49:28;10.03;;;6.50;;
70981;SDS011;58640;51.320;9.456;2023-03-01T06:51:53;12.00;;;6.73;;
70981;SDS011;58640;51.320;9.456;2023-03-01T06:54:19;12.97;;;7.20;;
70981;SDS011;58640;51.320;9.456;2023-03-01T06:56:47;12.77;;;6.73;;
70981;SDS011;58640;51.320;9.456;2023-03-01T06:59:12;14.43;;;7.43;;
70981;SDS011;58640;51.320;9.456;2023-03-01T07:01:38;10.30;;;7.40;;
70981;SDS011;58640;51.320;9.456;2023-03-01T07:04:03;14.53;;;7.40;;
70981;SDS011;58640;51.320;9.456;2023-03-01T07:06:29;13.30;;;7.27;;
70981;SDS011;58640;51.320;9.456;2023-03-01T07:08:55;10.90;;;7.40;;
70981;SDS011;58640;51.320;9.456;2023-03-01T07:11:20;11.80;;;7.33;;
70981;SDS011;58640;51.320;9.456;2023-03-01T07:13:45;12.70;;;7.73;;
70981;SDS011;58640;51.320;9.456;2023-03-01T07:16:10;14.97;;;7.40;;
70981;SDS011;58640;51.320;9.456;2023-03-01T07:18:36;12.50;;;7.23;;
70981;SDS011;58640;51.320;9.456;2023-03-01T07:21:05;11.37;;;7.70;;
70981;SDS011;58640;51.320;9.456;2023-03-01T07:23:34;11.50;;;6.77;;
70981;SDS011;58640;51.320;9.456;2023-03-01T07:26:00;12.63;;;7.80;;
70981;SDS011;58640;51.320;9.456;2023-03-01T07:28:26;11.63;;;7.63;;
70981;SDS011;58640;51.320;9.456;2023-03-01T07:30:52;12.60;;;6.93;;
70981;SDS011;58640;51.320;9.456;2023-03-01T07:33:17;12.47;;;7.13;;
70981;SDS011;58640;51.320;9.456;2023-03-01T07:35:43;18.10;;;6.60;;
70981;SDS011;58640;51.320;9.456;2023-03-01T07:38:08;14.10;;;7.37;;
70981;SDS011;58640;51.320;9.456;2023-03-01T07:40:33;15.37;;;6.17;;
70981;SDS011;58640;51.320;9.456;2023-03-01T07:42:59;12.80;;;6.90;;
70981;SDS011;58640;51.320;9.456;2023-03-01T07:45:26;11.80;;;6.63;;
70981;SDS011;58640;51.320;9.456;2023-03-01T07:47:52;16.47;;;6.60;;
70981;SDS011;58640;51.320;9.456;2023-03-01T07:50:18;10.77;;;6.33;;
70981;SDS011;58640;51.320;9.456;2023-03-01T07:52:47;9.10;;;5.43;;
70981;SDS011;58640;51.320;9.456;2023-03-01T07:55:13;20.87;;;9.03;;
70981;SDS011;58640;51.320;9.456;2023-03-01T07:57:39;13.33;;;7.20;;
70981;SDS011;58640;51.320;9.456;2023-03-01T08:00:05;13.27;;;6.67;;
70981;SDS011;58640;51.320;9.456;2023-03-01T08:02:32;11.33;;;5.70;;
70981;SDS011;58640;51.320;9.456;2023-03-01T08:04:57;9.13;;;5.40;;
70981;SDS011;58640;51.320;9.456;2023-03-01T08:07:23;9.37;;;6.10;;
70981;SDS011;58640;51.320;9.456;2023-03-01T08:09:48;15.50;;;5.97;;
70981;SDS011;58640;51.320;9.456;2023-03-01T08:12:13;14.10;;;5.87;;
70981;SDS011;58640;51.320;9.456;2023-03-01T08:14:41;9.63;;;5.68;;
70981;SDS011;58640;51.320;9.456;2023-03-01T08:17:06;10.65;;;6.03;;
70981;SDS011;58640;51.320;9.456;2023-03-01T08:19:31;9.15;;;5.45;;
70981;SDS011;58640;51.320;9.456;2023-03-01T08:21:58;9.67;;;6.20;;
70981;SDS011;58640;51.320;9.456;2023-03-01T08:24:24;10.50;;;6.28;;
70981;SDS011;58640;51.320;9.456;2023-03-01T08:26:50;9.43;;;6.32;;
70981;SDS011;58640;51.320;9.456;2023-03-01T08:29:16;11.43;;;6.07;;
70981;SDS011;58640;51.320;9.456;2023-03-01T08:31:41;10.23;;;6.40;;
70981;SDS011;58640;51.320;9.456;2023-03-01T08:34:11;10.15;;;5.38;;
70981;SDS011;58640;51.320;9.456;2023-03-01T08:36:39;9.10;;;5.72;;
70981;SDS011;58640;51.320;9.456;2023-03-01T08:39:07;10.85;;;6.63;;
70981;SDS011;58640;51.320;9.456;2023-03-01T08:41:33;10.93;;;5.78;;
70981;SDS011;58640;51.320;9.456;2023-03-01T08:43:59;8.32;;;5.32;;
70981;SDS011;58640;51.320;9.456;2023-03-01T08:46:28;11.80;;;5.38;;
70981;SDS011;58640;51.320;9.456;2023-03-01T08:48:55;7.43;;;5.25;;
70981;SDS011;58640;51.320;9.456;2023-03-01T08:51:20;8.05;;;5.05;;
70981;SDS011;58640;51.320;9.456;2023-03-01T08:53:46;7.13;;;5.28;;
70981;SDS011;58640;51.320;9.456;2023-03-01T08:56:12;9.52;;;5.45;;
70981;SDS011;58640;51.320;9.456;2023-03-01T08:58:38;9.25;;;5.13;;
70981;SDS011;58640;51.320;9.456;2023-03-01T09:01:08;10.65;;;5.75;;
70981;SDS011;58640;51.320;9.456;2023-03-01T09:03:34;9.73;;;6.38;;
70981;SDS011;58640;51.320;9.456;2023-03-01T09:06:00;8.30;;;5.32;;
70981;SDS011;58640;51.320;9.456;2023-03-01T09:08:26;11.73;;;5.90;;
70981;SDS011;58640;51.320;9.456;2023-03-01T09:10:52;7.20;;;5.30;;
70981;SDS011;58640;51.320;9.456;2023-03-01T09:13:17;11.65;;;5.35;;
70981;SDS011;58640;51.320;9.456;2023-03-01T09:15:42;11.35;;;5.28;;
70981;SDS011;58640;51.320;9.456;2023-03-01T09:18:08;10.07;;;6.03;;
70981;SDS011;58640;51.320;9.456;2023-03-01T09:20:33;10.18;;;6.05;;
70981;SDS011;58640;51.320;9.456;2023-03-01T09:22:59;7.75;;;5.10;;
70981;SDS011;58640;51.320;9.456;2023-03-01T09:25:24;10.50;;;5.80;;
70981;SDS011;58640;51.320;9.456;2023-03-01T09:27:53;9.85;;;5.45;;
70981;SDS011;58640;51.320;9.456;2023-03-01T09:30:19;10.43;;;5.43;;
70981;SDS011;58640;51.320;9.456;2023-03-01T09:32:45;11.75;;;6.35;;
70981;SDS011;58640;51.320;9.456;2023-03-01T09:35:11;8.60;;;4.95;;
70981;SDS011;58640;51.320;9.456;2023-03-01T09:37:36;8.85;;;5.97;;
70981;SDS011;58640;51.320;9.456;2023-03-01T09:40:06;8.38;;;5.35;;
70981;SDS011;58640;51.320;9.456;2023-03-01T09:42:44;7.13;;;5.60;;
70981;SDS011;58640;51.320;9.456;2023-03-01T09:48:16;8.00;;;5.18;;
70981;SDS011;58640;51.320;9.456;2023-03-01T09:50:47;11.57;;;5.90;;
70981;SDS011;58640;51.320;9.456;2023-03-01T09:53:13;8.52;;;5.55;;
70981;SDS011;58640;51.320;9.456;2023-03-01T10:06:25;8.40;;;5.57;;
70981;SDS011;58640;51.320;9.456;2023-03-01T10:11:22;13.50;;;7.35;;
70981;SDS011;58640;51.320;9.456;2023-03-01T10:13:55;11.07;;;5.47;;
70981;SDS011;58640;51.320;9.456;2023-03-01T10:16:55;11.27;;;5.72;;
70981;SDS011;58640;51.320;9.456;2023-03-01T10:19:28;9.88;;;5.68;;
70981;SDS011;58640;51.320;9.456;2023-03-01T10:21:57;12.10;;;5.72;;
70981;SDS011;58640;51.320;9.456;2023-03-01T10:24:36;11.70;;;6.10;;
70981;SDS011;58640;51.320;9.456;2023-03-01T10:27:04;11.57;;;5.75;;
70981;SDS011;58640;51.320;9.456;2023-03-01T10:29:52;9.18;;;5.47;;
70981;SDS011;58640;51.320;9.456;2023-03-01T10:32:41;10.02;;;5.30;;
70981;SDS011;58640;51.320;9.456;2023-03-01T10:35:18;10.15;;;5.75;;
70981;SDS011;58640;51.320;9.456;2023-03-01T10:37:56;7.88;;;5.13;;
70981;SDS011;58640;51.320;9.456;2023-03-01T10:40:23;10.55;;;5.95;;
70981;SDS011;58640;51.320;9.456;2023-03-01T10:42:49;9.32;;;5.28;;
70981;SDS011;58640;51.320;9.456;2023-03-01T10:50:33;10.52;;;5.72;;
70981;SDS011;58640;51.320;9.456;2023-03-01T10:53:00;12.73;;;6.47;;
70981;SDS011;58640;51.320;9.456;2023-03-01T10:55:31;12.43;;;5.53;;
70981;SDS011;58640;51.320;9.456;2023-03-01T10:58:16;9.18;;;5.50;;
70981;SDS011;58640;51.320;9.456;2023-03-01T11:00:57;11.60;;;6.00;;
70981;SDS011;58640;51.320;9.456;2023-03-01T11:03:26;10.20;;;5.72;;
70981;SDS011;58640;51.320;9.456;2023-03-01T11:08:50;14.15;;;5.82;;
70981;SDS011;58640;51.320;9.456;2023-03-01T11:11:26;10.02;;;6.35;;
70981;SDS011;58640;51.320;9.456;2023-03-01T11:14:00;10.35;;;5.60;;
70981;SDS011;58640;51.320;9.456;2023-03-01T11:19:00;13.30;;;6.30;;
70981;SDS011;58640;51.320;9.456;2023-03-01T11:21:51;11.60;;;6.00;;
70981;SDS011;58640;51.320;9.456;2023-03-01T11:24:29;10.98;;;6.47;;
70981;SDS011;58640;51.320;9.456;2023-03-01T11:26:59;12.20;;;7.03;;
70981;SDS011;58640;51.320;9.456;2023-03-01T11:29:30;10.18;;;5.68;;
70981;SDS011;58640;51.320;9.456;2023-03-01T11:32:02;12.82;;;7.20;;
70981;SDS011;58640;51.320;9.456;2023-03-01T11:34:36;9.02;;;6.18;;
70981;SDS011;58640;51.320;9.456;2023-03-01T11:37:12;14.98;;;6.00;;
70981;SDS011;58640;51.320;9.456;2023-03-01T11:39:54;11.43;;;6.63;;
70981;SDS011;58640;51.320;9.456;2023-03-01T11:42:35;12.60;;;6.20;;
70981;SDS011;58640;51.320;9.456;2023-03-01T11:45:10;11.63;;;7.05;;
70981;SDS011;58640;51.320;9.456;2023-03-01T11:47:41;10.10;;;5.82;;
70981;SDS011;58640;51.320;9.456;2023-03-01T11:50:23;11.25;;;6.20;;
70981;SDS011;58640;51.320;9.456;2023-03-01T11:53:15;13.35;;;6.13;;
70981;SDS011;58640;51.320;9.456;2023-03-01T12:12:35;10.73;;;6.07;;
70981;SDS011;58640;51.320;9.456;2023-03-01T12:26:32;11.38;;;6.05;;
70981;SDS011;58640;51.320;9.456;2023-03-01T12:29:14;11.52;;;6.95;;
70981;SDS011;58640;51.320;9.456;2023-03-01T12:31:58;11.02;;;6.90;;
70981;SDS011;58640;51.320;9.456;2023-03-01T12:37:08;10.10;;;6.43;;
70981;SDS011;58640;51.320;9.456;2023-03-01T12:45:17;10.45;;;6.15;;
70981;SDS011;58640;51.320;9.456;2023-03-01T12:47:53;11.80;;;6.43;;
70981;SDS011;58640;51.320;9.456;2023-03-01T12:50:22;12.07;;;6.22;;
70981;SDS011;58640;51.320;9.456;2023-03-01T12:52:50;9.32;;;5.40;;
70981;SDS011;58640;51.320;9.456;2023-03-01T13:01:00;11.45;;;6.22;;
70981;SDS011;58640;51.320;9.456;2023-03-01T13:06:13;13.15;;;6.07;;
70981;SDS011;58640;51.320;9.456;2023-03-01T13:08:48;10.43;;;5.65;;
70981;SDS011;58640;51.320;9.456;2023-03-01T13:11:21;11.27;;;5.75;;
70981;SDS011;58640;51.320;9.456;2023-03-01T13:13:48;8.52;;;5.07;;
70981;SDS011;58640;51.320;9.456;2023-03-01T13:19:12;7.88;;;5.22;;
70981;SDS011;58640;51.320;9.456;2023-03-01T13:21:40;12.27;;;4.97;;
70981;SDS011;58640;51.320;9.456;2023-03-01T13:24:23;8.90;;;5.28;;
70981;SDS011;58640;51.320;9.456;2023-03-01T13:29:45;8.48;;;4.68;;
70981;SDS011;58640;51.320;9.456;2023-03-01T13:32:28;8.75;;;4.97;;
70981;SDS011;58640;51.320;9.456;2023-03-01T13:37:26;11.93;;;5.30;;
70981;SDS011;58640;51.320;9.456;2023-03-01T13:40:02;8.00;;;4.80;;
70981;SDS011;58640;51.320;9.456;2023-03-01T13:42:41;7.07;;;4.97;;
70981;SDS011;58640;51.320;9.456;2023-03-01T13:45:15;8.82;;;5.20;;
70981;SDS011;58640;51.320;9.456;2023-03-01T13:47:44;9.88;;;4.93;;
70981;SDS011;58640;51.320;9.456;2023-03-01T13:50:30;8.88;;;4.15;;
70981;SDS011;58640;51.320;9.456;2023-03-01T13:53:02;7.55;;;4.15;;
70981;SDS011;58640;51.320;9.456;2023-03-01T13:58:30;7.72;;;4.57;;
70981;SDS011;58640;51.320;9.456;2023-03-01T14:01:04;7.60;;;3.95;;
70981;SDS011;58640;51.320;9.456;2023-03-01T14:03:40;6.40;;;3.85;;
70981;SDS011;58640;51.320;9.456;2023-03-01T14:06:17;7.97;;;4.35;;
70981;SDS011;58640;51.320;9.456;2023-03-01T14:08:46;8.18;;;4.35;;
70981;SDS011;58640;51.320;9.456;2023-03-01T14:14:19;9.00;;;4.35;;
70981;SDS011;58640;51.320;9.456;2023-03-01T14:17:16;8.68;;;4.18;;
70981;SDS011;58640;51.320;9.456;2023-03-01T14:20:12;8.52;;;4.40;;
70981;SDS011;58640;51.320;9.456;2023-03-01T14:22:56;7.03;;;3.53;;
70981;SDS011;58640;51.320;9.456;2023-03-01T14:25:34;8.07;;;5.22;;
70981;SDS011;58640;51.320;9.456;2023-03-01T14:28:14;8.30;;;4.82;;
70981;SDS011;58640;51.320;9.456;2023-03-01T14:30:44;8.50;;;4.43;;
70981;SDS011;58640;51.320;9.456;2023-03-01T14:33:22;9.32;;;4.78;;
70981;SDS011;58640;51.320;9.456;2023-03-01T14:36:00;8.75;;;4.32;;
70981;SDS011;58640;51.320;9.456;2023-03-01T14:38:40;10.80;;;5.50;;
70981;SDS011;58640;51.320;9.456;2023-03-01T14:41:20;8.07;;;4.82;;
70981;SDS011;58640;51.320;9.456;2023-03-01T14:46:22;7.43;;;4.57;;
70981;SDS011;58640;51.320;9.456;2023-03-01T14:48:57;8.48;;;4.97;;
70981;SDS011;58640;51.320;9.456;2023-03-01T14:51:28;7.70;;;4.80;;
70981;SDS011;58640;51.320;9.456;2023-03-01T14:53:53;13.23;;;4.80;;
70981;SDS011;58640;51.320;9.456;2023-03-01T14:56:19;6.88;;;4.90;;
70981;SDS011;58640;51.320;9.456;2023-03-01T14:58:44;11.85;;;5.28;;
70981;SDS011;58640;51.320;9.456;2023-03-01T15:01:13;8.77;;;5.22;;
70981;SDS011;58640;51.320;9.456;2023-03-01T15:03:41;8.23;;;4.53;;
70981;SDS011;58640;51.320;9.456;2023-03-01T15:06:09;9.18;;;4.57;;
70981;SDS011;58640;51.320;9.456;2023-03-01T15:08:39;7.43;;;4.07;;
70981;SDS011;58640;51.320;9.456;2023-03-01T15:13:38;9.85;;;4.82;;
70981;SDS011;58640;51.320;9.456;2023-03-01T15:16:15;6.38;;;4.88;;
70981;SDS011;58640;51.320;9.456;2023-03-01T15:18:54;14.95;;;7.63;;
70981;SDS011;58640;51.320;9.456;2023-03-01T15:21:23;7.65;;;4.57;;
70981;SDS011;58640;51.320;9.456;2023-03-01T15:23:50;12.43;;;4.95;;
70981;SDS011;58640;51.320;9.456;2023-03-01T15:26:21;6.47;;;4.15;;
70981;SDS011;58640;51.320;9.456;2023-03-01T15:28:49;6.63;;;4.10;;
70981;SDS011;58640;51.320;9.456;2023-03-01T15:31:20;7.47;;;4.43;;
70981;SDS011;58640;51.320;9.456;2023-03-01T15:33:48;12.35;;;5.03;;
70981;SDS011;58640;51.320;9.456;2023-03-01T15:36:35;7.68;;;4.40;;
70981;SDS011;58640;51.320;9.456;2023-03-01T15:39:05;10.90;;;4.82;;
70981;SDS011;58640;51.320;9.456;2023-03-01T15:41:50;10.27;;;4.65;;
70981;SDS011;58640;51.320;9.456;2023-03-01T15:44:17;8.82;;;4.30;;
70981;SDS011;58640;51.320;9.456;2023-03-01T15:46:50;10.80;;;5.95;;
70981;SDS011;58640;51.320;9.456;2023-03-01T15:49:23;10.60;;;4.93;;
70981;SDS011;58640;51.320;9.456;2023-03-01T15:51:55;10.20;;;5.03;;
70981;SDS011;58640;51.320;9.456;2023-03-01T15:54:22;8.77;;;4.78;;
70981;SDS011;58640;51.320;9.456;2023-03-01T15:56:49;7.88;;;4.57;;
70981;SDS011;58640;51.320;9.456;2023-03-01T15:59:15;10.93;;;5.05;;
70981;SDS011;58640;51.320;9.456;2023-03-01T16:01:41;12.48;;;4.97;;
70981;SDS011;58640;51.320;9.456;2023-03-01T16:04:11;8.75;;;5.07;;
70981;SDS011;58640;51.320;9.456;2023-03-01T16:06:46;8.35;;;4.10;;
70981;SDS011;58640;51.320;9.456;2023-03-01T16:09:18;6.78;;;4.43;;
70981;SDS011;58640;51.320;9.456;2023-03-01T16:11:43;12.00;;;5.93;;
70981;SDS011;58640;51.320;9.456;2023-03-01T16:14:09;9.63;;;4.43;;
70981;SDS011;58640;51.320;9.456;2023-03-01T16:16:34;9.23;;;4.65;;
70981;SDS011;58640;51.320;9.456;2023-03-01T16:19:00;6.55;;;4.25;;
70981;SDS011;58640;51.320;9.456;2023-03-01T16:21:25;8.02;;;4.13;;
70981;SDS011;58640;51.320;9.456;2023-03-01T16:23:51;10.63;;;5.55;;
70981;SDS011;58640;51.320;9.456;2023-03-01T16:26:17;7.32;;;4.60;;
70981;SDS011;58640;51.320;9.456;2023-03-01T16:28:43;9.35;;;4.70;;
70981;SDS011;58640;51.320;9.456;2023-03-01T16:31:10;7.43;;;4.18;;
70981;SDS011;58640;51.320;9.456;2023-03-01T16:33:36;7.93;;;4.88;;
70981;SDS011;58640;51.320;9.456;2023-03-01T16:36:09;9.50;;;4.50;;
70981;SDS011;58640;51.320;9.456;2023-03-01T16:38:35;9.95;;;5.50;;